Time;durP1;ratioP1;P1;durP2;ratioP2;P2;SDS_P1;SDS_P2;PMS_P1;PMS_P2;Temp;Humidity;BMP_temperature;BMP_pressure;BME280_temperature;BME280_humidity;BME280_pressure;Samples;Min_cycle;Max_cycle;Signal;HPM_P1;HPM_P2
2023/09/12 00:00:58;;;;;;;;;;;;;;;25.44;100.00;97621.00;5099987;28;20401;-79
2023/09/12 00:03:26;;;;;;;;;;;;;;;25.42;100.00;97623.31;5092078;28;19928;-79
2023/09/12 00:05:52;;;;;;;;;;;;;;;25.40;100.00;97609.25;5101374;28;19924;-79
2023/09/12 00:08:19;;;;;;;;;;;;;;;25.34;100.00;97613.44;5104469;28;19991;-79
2023/09/12 00:10:45;;;;;;;;;;;;;;;25.31;100.00;97616.13;5122256;28;19959;-78
2023/09/12 00:13:11;;;;;;;;;;;;;;;25.27;100.00;97610.59;5118464;28;19931;-79
2023/09/12 00:15:38;;;;;;;;;;;;;;;25.26;100.00;97619.94;5118300;28;19986;-79
2023/09/12 00:18:05;;;;;;;;;;;;;;;25.24;100.00;97614.84;5112656;28;19953;-79
2023/09/12 00:20:33;;;;;;;;;;;;;;;25.21;100.00;97621.03;5121891;28;19924;-79
2023/09/12 00:22:59;;;;;;;;;;;;;;;25.24;100.00;97608.59;5102300;28;19927;-79
2023/09/12 00:25:25;;;;;;;;;;;;;;;25.25;100.00;97615.63;5100546;28;20319;-78
2023/09/12 00:27:52;;;;;;;;;;;;;;;25.25;100.00;97612.91;5100898;28;19963;-79
2023/09/12 00:30:18;;;;;;;;;;;;;;;25.23;100.00;97607.00;5103915;28;19966;-78
2023/09/12 00:32:46;;;;;;;;;;;;;;;25.22;100.00;97611.66;5103879;28;20374;-78
2023/09/12 00:35:13;;;;;;;;;;;;;;;25.20;100.00;97611.25;5109734;28;19924;-78
2023/09/12 00:37:41;;;;;;;;;;;;;;;25.18;100.00;97604.59;5100233;28;19924;-78
2023/09/12 00:40:08;;;;;;;;;;;;;;;25.17;100.00;97603.78;5109751;28;19928;-78
2023/09/12 00:42:34;;;;;;;;;;;;;;;25.15;100.00;97606.09;5110203;28;19924;-78
2023/09/12 00:45:00;;;;;;;;;;;;;;;25.14;100.00;97603.72;5109952;28;19924;-78
2023/09/12 00:47:28;;;;;;;;;;;;;;;25.15;100.00;97599.84;5109976;28;19924;-78
2023/09/12 00:49:55;;;;;;;;;;;;;;;25.09;100.00;97596.63;5119196;28;19950;-78
2023/09/12 00:52:22;;;;;;;;;;;;;;;24.88;100.00;97595.47;5121889;28;19924;-79
2023/09/12 00:54:50;;;;;;;;;;;;;;;24.93;100.00;97595.16;5103400;28;19948;-79
2023/09/12 00:57:17;;;;;;;;;;;;;;;24.96;100.00;97592.50;5118318;28;19951;-78
2023/09/12 00:59:43;;;;;;;;;;;;;;;24.82;100.00;97589.50;5100342;28;19920;-78
2023/09/12 01:02:10;;;;;;;;;;;;;;;24.88;100.00;97590.78;5103636;28;19962;-78
2023/09/12 01:04:37;;;;;;;;;;;;;;;24.93;100.00;97587.75;5104753;28;19923;-77
2023/09/12 01:07:04;;;;;;;;;;;;;;;24.95;100.00;97585.44;5105504;28;19946;-77
2023/09/12 01:09:30;;;;;;;;;;;;;;;24.93;100.00;97590.50;5104191;28;20003;-78
2023/09/12 01:12:00;;;;;;;;;;;;;;;24.94;100.00;97585.84;5105355;28;19935;-78
2023/09/12 01:14:26;;;;;;;;;;;;;;;24.94;100.00;97589.34;5107522;28;19923;-79
2023/09/12 01:16:53;;;;;;;;;;;;;;;24.93;100.00;97579.56;5116569;28;19970;-78
2023/09/12 01:19:20;;;;;;;;;;;;;;;24.94;100.00;97588.56;5103912;28;19946;-78
2023/09/12 01:21:59;;;;;;;;;;;;;;;24.93;100.00;97584.25;5121798;28;20015;-78
2023/09/12 01:24:48;;;;;;;;;;;;;;;24.89;100.00;97589.63;5113651;28;19963;-78
2023/09/12 01:27:26;;;;;;;;;;;;;;;24.90;100.00;97576.78;5103674;28;19928;-78
2023/09/12 01:29:54;;;;;;;;;;;;;;;24.89;100.00;97577.91;5113515;28;19950;-78
2023/09/12 01:32:21;;;;;;;;;;;;;;;24.83;100.00;97579.38;5113694;28;19952;-78
2023/09/12 01:34:48;;;;;;;;;;;;;;;24.85;100.00;97583.31;5129033;28;19924;-78
2023/09/12 01:37:14;;;;;;;;;;;;;;;24.84;100.00;97578.22;5095513;28;19924;-78
2023/09/12 01:39:41;;;;;;;;;;;;;;;24.83;100.00;97576.66;5103608;28;19946;-77
2023/09/12 01:42:09;;;;;;;;;;;;;;;24.66;100.00;97584.13;5121802;28;19928;-77
2023/09/12 01:44:38;;;;;;;;;;;;;;;24.58;100.00;97582.44;5121599;28;19931;-77
2023/09/12 01:47:05;;;;;;;;;;;;;;;24.54;100.00;97581.56;5114601;28;19956;-77
2023/09/12 01:49:34;;;;;;;;;;;;;;;24.48;100.00;97582.25;5121536;28;19931;-77
2023/09/12 01:52:00;;;;;;;;;;;;;;;24.47;100.00;97576.00;5106080;28;19970;-77
2023/09/12 01:54:28;;;;;;;;;;;;;;;24.48;100.00;97580.28;5107413;28;19923;-78
2023/09/12 01:56:57;;;;;;;;;;;;;;;24.45;100.00;97589.19;5105856;28;19946;-78
2023/09/12 01:59:23;;;;;;;;;;;;;;;24.49;100.00;97581.06;5121824;28;19935;-78
2023/09/12 02:01:51;;;;;;;;;;;;;;;24.37;100.00;97582.03;5122422;28;19924;-78
2023/09/12 02:04:18;;;;;;;;;;;;;;;24.34;100.00;97587.41;5107573;28;20063;-78
2023/09/12 02:06:44;;;;;;;;;;;;;;;24.23;100.00;97586.41;5124559;28;19951;-78
2023/09/12 02:09:10;;;;;;;;;;;;;;;24.08;100.00;97585.28;5103266;28;19947;-78
2023/09/12 02:11:37;;;;;;;;;;;;;;;24.00;100.00;97572.66;5121149;28;20011;-78
2023/09/12 02:14:03;;;;;;;;;;;;;;;23.92;100.00;97581.84;5105353;28;19924;-78
2023/09/12 02:16:30;;;;;;;;;;;;;;;24.00;100.00;97580.84;5100258;28;19946;-77
2023/09/12 02:18:57;;;;;;;;;;;;;;;24.15;100.00;97583.53;5121217;28;19975;-78
2023/09/12 02:21:24;;;;;;;;;;;;;;;24.31;100.00;97588.94;5103280;28;19924;-78
2023/09/12 02:23:51;;;;;;;;;;;;;;;24.39;100.00;97585.16;5121902;28;20011;-78
2023/09/12 02:26:18;;;;;;;;;;;;;;;24.33;100.00;97589.34;5124573;28;19924;-78
2023/09/12 02:28:46;;;;;;;;;;;;;;;24.34;100.00;97588.22;5106288;28;19945;-78
2023/09/12 02:31:12;;;;;;;;;;;;;;;24.37;100.00;97586.69;5102709;28;20094;-78
2023/09/12 02:33:39;;;;;;;;;;;;;;;24.26;100.00;97589.22;5102888;28;19925;-78
2023/09/12 02:36:07;;;;;;;;;;;;;;;24.21;100.00;97583.25;5105024;28;19928;-78
2023/09/12 02:38:33;;;;;;;;;;;;;;;24.10;100.00;97586.53;5124175;28;19924;-78
2023/09/12 02:41:01;;;;;;;;;;;;;;;24.01;100.00;97594.16;5104307;28;19967;-79
2023/09/12 02:43:28;;;;;;;;;;;;;;;24.06;100.00;97593.06;5120867;28;19946;-78
2023/09/12 02:45:54;;;;;;;;;;;;;;;24.19;100.00;97594.53;5120487;28;19924;-78
2023/09/12 02:48:21;;;;;;;;;;;;;;;24.25;100.00;97600.50;5094077;28;19946;-78
2023/09/12 02:50:47;;;;;;;;;;;;;;;24.29;100.00;97602.16;5107208;28;19924;-78
2023/09/12 02:53:15;;;;;;;;;;;;;;;24.23;100.00;97597.34;5105804;28;19966;-78
2023/09/12 02:55:42;;;;;;;;;;;;;;;24.22;100.00;97596.53;5123706;28;19951;-78
2023/09/12 02:58:09;;;;;;;;;;;;;;;24.25;100.00;97603.22;5102990;28;19985;-79
2023/09/12 03:00:38;;;;;;;;;;;;;;;24.29;100.00;97593.16;5102524;28;19995;-79
2023/09/12 03:03:04;;;;;;;;;;;;;;;24.27;100.00;97598.19;5122864;28;19924;-79
2023/09/12 03:05:31;;;;;;;;;;;;;;;24.28;100.00;97595.09;5139643;27;19924;-79
2023/09/12 03:07:57;;;;;;;;;;;;;;;24.27;100.00;97601.69;5122346;28;19930;-79
2023/09/12 03:10:25;;;;;;;;;;;;;;;24.27;100.00;97603.63;5102183;28;20305;-79
2023/09/12 03:12:53;;;;;;;;;;;;;;;24.26;100.00;97602.06;5120821;28;19920;-78
2023/09/12 03:15:19;;;;;;;;;;;;;;;24.24;100.00;97605.16;5101956;28;19932;-78
2023/09/12 03:17:46;;;;;;;;;;;;;;;24.24;100.00;97610.59;5093271;28;19924;-78
2023/09/12 03:20:12;;;;;;;;;;;;;;;24.23;100.00;97609.03;5123422;28;19962;-79
2023/09/12 03:22:39;;;;;;;;;;;;;;;24.26;100.00;97607.53;5105325;28;19955;-79
2023/09/12 03:25:05;;;;;;;;;;;;;;;24.23;100.00;97609.03;5120486;28;19927;-78
2023/09/12 03:27:33;;;;;;;;;;;;;;;24.24;100.00;97607.09;5118891;28;19962;-79
2023/09/12 03:29:59;;;;;;;;;;;;;;;24.18;100.00;97606.59;5121494;28;19978;-79
2023/09/12 03:32:26;;;;;;;;;;;;;;;24.21;100.00;97605.06;5105058;28;19943;-79
2023/09/12 03:34:52;;;;;;;;;;;;;;;24.17;100.00;97603.06;5104428;28;19927;-79
2023/09/12 03:37:19;;;;;;;;;;;;;;;24.19;100.00;97602.72;5101517;28;20042;-78
2023/09/12 03:39:45;;;;;;;;;;;;;;;24.17;100.00;97608.53;5119532;28;19936;-78
2023/09/12 03:42:11;;;;;;;;;;;;;;;24.09;100.00;97604.03;5124546;28;19928;-79
2023/09/12 03:44:39;;;;;;;;;;;;;;;24.13;100.00;97598.69;5107555;28;19966;-79
2023/09/12 03:47:06;;;;;;;;;;;;;;;24.08;100.00;97602.44;5095316;28;19924;-79
2023/09/12 03:49:32;;;;;;;;;;;;;;;24.03;100.00;97593.78;5119536;28;19924;-79
2023/09/12 03:52:01;;;;;;;;;;;;;;;23.94;100.00;97588.53;5102684;28;19924;-79
2023/09/12 03:54:28;;;;;;;;;;;;;;;23.75;100.00;97584.97;5104896;28;19927;-79
2023/09/12 03:56:54;;;;;;;;;;;;;;;23.71;100.00;97584.91;5138166;27;19955;-79
2023/09/12 03:59:20;;;;;;;;;;;;;;;23.85;100.00;97592.59;5103132;28;19924;-78
2023/09/12 04:01:48;;;;;;;;;;;;;;;23.93;100.00;97595.13;5122397;28;19924;-78
2023/09/12 04:04:14;;;;;;;;;;;;;;;23.97;100.00;97600.66;5104577;28;19923;-78
2023/09/12 04:06:41;;;;;;;;;;;;;;;23.97;100.00;97595.19;5122178;28;19936;-79
2023/09/12 04:09:07;;;;;;;;;;;;;;;23.99;100.00;97592.91;5107128;28;19938;-79
2023/09/12 04:11:34;;;;;;;;;;;;;;;23.96;100.00;97594.41;5107639;28;19933;-79
2023/09/12 04:14:00;;;;;;;;;;;;;;;23.97;100.00;97590.53;5122910;28;19928;-79
2023/09/12 04:16:27;;;;;;;;;;;;;;;23.97;100.00;97589.75;5096228;28;19946;-79
2023/09/12 04:18:54;;;;;;;;;;;;;;;23.96;100.00;97597.13;5121117;28;19955;-79
2023/09/12 04:21:21;;;;;;;;;;;;;;;23.97;100.00;97606.13;5102698;28;19919;-79
2023/09/12 04:23:47;;;;;;;;;;;;;;;23.93;100.00;97602.50;5102728;28;19959;-79
2023/09/12 04:26:13;;;;;;;;;;;;;;;23.89;100.00;97604.41;5111573;28;19958;-79
2023/09/12 04:28:40;;;;;;;;;;;;;;;23.89;100.00;97604.41;5110434;28;19931;-79
2023/09/12 04:31:06;;;;;;;;;;;;;;;23.85;100.00;97603.50;5111250;28;19935;-79
2023/09/12 04:33:32;;;;;;;;;;;;;;;23.87;100.00;97603.94;5127049;28;19924;-79
2023/09/12 04:36:02;;;;;;;;;;;;;;;23.84;100.00;97602.72;5112756;28;19963;-79
2023/09/12 04:41:09;;;;;;;;;;;;;;;23.79;100.00;97608.47;5115393;28;19939;-78
2023/09/12 04:43:36;;;;;;;;;;;;;;;23.73;100.00;97595.47;5115616;28;19980;-78
2023/09/12 04:51:38;;;;;;;;;;;;;;;23.76;100.00;97608.38;5108465;28;19969;-78
2023/09/12 04:54:04;;;;;;;;;;;;;;;23.75;100.00;97607.59;5124008;28;19919;-79
2023/09/12 04:56:31;;;;;;;;;;;;;;;23.71;100.00;97611.38;5122327;28;19928;-78
2023/09/12 04:59:00;;;;;;;;;;;;;;;23.67;100.00;97614.81;5104818;28;19956;-79
2023/09/12 05:01:26;;;;;;;;;;;;;;;23.66;100.00;97620.63;5108567;28;19919;-79
2023/09/12 05:04:08;;;;;;;;;;;;;;;23.63;100.00;97619.41;5106875;28;19927;-79
2023/09/12 05:06:36;;;;;;;;;;;;;;;23.70;100.00;97615.25;5119171;28;19924;-79
2023/09/12 05:09:03;;;;;;;;;;;;;;;23.74;100.00;97618.88;5102482;28;19979;-79
2023/09/12 05:14:10;;;;;;;;;;;;;;;23.76;100.00;97624.75;5118669;28;19924;-79
2023/09/12 05:16:36;;;;;;;;;;;;;;;23.72;100.00;97615.69;5111207;28;19970;-79
2023/09/12 05:19:03;;;;;;;;;;;;;;;23.78;100.00;97616.97;5119532;28;19924;-79
2023/09/12 05:21:29;;;;;;;;;;;;;;;23.72;100.00;97618.41;5118714;28;19924;-79
2023/09/12 05:23:57;;;;;;;;;;;;;;;23.67;100.00;97617.53;5119635;28;20602;-79
2023/09/12 05:26:24;;;;;;;;;;;;;;;23.68;100.00;97615.59;5104048;28;19924;-79
2023/09/12 05:28:50;;;;;;;;;;;;;;;23.69;100.00;97619.13;5102967;28;20018;-79
2023/09/12 05:31:17;;;;;;;;;;;;;;;23.64;100.00;97617.47;5099944;28;19959;-79
2023/09/12 05:33:43;;;;;;;;;;;;;;;23.65;100.00;97619.84;5118523;28;19950;-78
2023/09/12 05:36:09;;;;;;;;;;;;;;;23.69;100.00;97611.72;5121302;28;19977;-78
2023/09/12 05:38:36;;;;;;;;;;;;;;;23.73;100.00;97611.81;5103591;28;19970;-78
2023/09/12 05:41:04;;;;;;;;;;;;;;;23.79;100.00;97626.75;5119484;28;19924;-78
2023/09/12 05:43:30;;;;;;;;;;;;;;;23.82;100.00;97623.31;5100097;28;19931;-79
2023/09/12 05:45:58;;;;;;;;;;;;;;;23.84;100.00;97629.19;5117983;28;19924;-78
2023/09/12 05:48:24;;;;;;;;;;;;;;;23.93;100.00;97627.06;5091488;28;19924;-78
2023/09/12 05:50:51;;;;;;;;;;;;;;;23.99;100.00;97622.91;5119632;28;19923;-79
2023/09/12 05:53:17;;;;;;;;;;;;;;;24.01;100.00;97623.34;5106867;28;19991;-78
2023/09/12 05:55:47;;;;;;;;;;;;;;;24.04;100.00;97631.63;5125235;28;19975;-78
2023/09/12 05:58:14;;;;;;;;;;;;;;;24.06;100.00;97625.78;5113182;28;19920;-78
2023/09/12 06:00:41;;;;;;;;;;;;;;;24.21;100.00;97622.25;5103001;28;19924;-78
2023/09/12 06:03:07;;;;;;;;;;;;;;;24.31;100.00;97631.78;5102671;28;19970;-78
2023/09/12 06:05:34;;;;;;;;;;;;;;;24.41;100.00;97631.22;5097692;28;19924;-78
2023/09/12 06:08:00;;;;;;;;;;;;;;;24.46;100.00;97639.91;5111563;28;19931;-78
2023/09/12 06:10:27;;;;;;;;;;;;;;;24.57;100.00;97638.16;5121674;28;19924;-79
2023/09/12 06:12:53;;;;;;;;;;;;;;;24.53;100.00;97634.59;5103951;28;19946;-78
2023/09/12 06:15:21;;;;;;;;;;;;;;;24.68;100.00;97638.38;5103196;28;19948;-78
2023/09/12 06:17:47;;;;;;;;;;;;;;;24.89;100.00;97644.28;5093858;28;19959;-79
2023/09/12 06:20:13;;;;;;;;;;;;;;;24.98;100.00;97635.84;5102838;28;19931;-78
2023/09/12 06:22:40;;;;;;;;;;;;;;;24.89;100.00;97638.00;5102939;28;19957;-78
2023/09/12 06:25:07;;;;;;;;;;;;;;;24.35;100.00;97633.47;5105716;28;19920;-78
2023/09/12 06:27:33;;;;;;;;;;;;;;;23.67;100.00;97635.84;5124236;28;19969;-78
2023/09/12 06:29:59;;;;;;;;;;;;;;;22.95;100.00;97648.84;5122975;28;19995;-79
2023/09/12 06:32:27;;;;;;;;;;;;;;;23.09;100.00;97646.47;5102799;28;19920;-78
2023/09/12 06:34:54;;;;;;;;;;;;;;;23.58;100.00;97646.91;5121395;28;19924;-79
2023/09/12 06:37:20;;;;;;;;;;;;;;;23.28;100.00;97648.50;5123924;28;19924;-78
2023/09/12 06:39:50;;;;;;;;;;;;;;;23.33;100.00;97645.53;5123997;28;19923;-78
2023/09/12 06:42:16;;;;;;;;;;;;;;;23.45;100.00;97640.00;5111957;28;20245;-78
2023/09/12 06:44:43;;;;;;;;;;;;;;;23.72;100.00;97651.13;5102219;28;20519;-78
2023/09/12 06:47:10;;;;;;;;;;;;;;;23.63;100.00;97640.41;5101324;28;19950;-78
2023/09/12 06:49:38;;;;;;;;;;;;;;;24.41;100.00;97634.75;5097393;28;19971;-78
2023/09/12 06:52:05;;;;;;;;;;;;;;;24.42;100.00;97647.22;5112153;28;19956;-78
2023/09/12 06:54:32;;;;;;;;;;;;;;;23.97;100.00;97633.38;5100101;28;19924;-77
2023/09/12 06:57:14;;;;;;;;;;;;;;;23.18;100.00;97632.66;5102315;28;19946;-78
2023/09/12 06:59:40;;;;;;;;;;;;;;;23.05;100.00;97644.81;5120347;28;19924;-78
2023/09/12 07:02:07;;;;;;;;;;;;;;;22.87;100.00;97649.00;5105122;28;19962;-78
2023/09/12 07:04:33;;;;;;;;;;;;;;;22.78;100.00;97645.63;5123666;28;19923;-78
2023/09/12 07:07:01;;;;;;;;;;;;;;;22.57;100.00;97653.97;5121959;28;19935;-78
2023/09/12 07:09:27;;;;;;;;;;;;;;;22.34;100.00;97648.31;5120519;28;19951;-78
2023/09/12 07:11:54;;;;;;;;;;;;;;;22.03;100.00;97643.50;5121130;28;19935;-78
2023/09/12 07:14:20;;;;;;;;;;;;;;;22.06;100.00;97647.47;5123302;28;19946;-78
2023/09/12 07:16:47;;;;;;;;;;;;;;;22.17;100.00;97645.84;5115209;28;19930;-78
2023/09/12 07:19:13;;;;;;;;;;;;;;;22.49;100.00;97654.94;5120024;28;19924;-78
2023/09/12 07:21:39;;;;;;;;;;;;;;;22.67;100.00;97660.91;5101920;28;19928;-78
2023/09/12 07:24:07;;;;;;;;;;;;;;;23.30;100.00;97653.59;5104440;28;19924;-78
2023/09/12 07:26:34;;;;;;;;;;;;;;;23.12;100.00;97659.38;5124125;28;19953;-78
2023/09/12 07:29:02;;;;;;;;;;;;;;;22.65;100.00;97665.88;5121972;28;19927;-78
2023/09/12 07:31:29;;;;;;;;;;;;;;;22.41;100.00;97659.38;5101631;28;19928;-78
2023/09/12 07:33:55;;;;;;;;;;;;;;;22.49;100.00;97661.19;5120717;28;19951;-78
2023/09/12 07:36:21;;;;;;;;;;;;;;;22.52;100.00;97667.84;5123474;28;19958;-79
2023/09/12 07:38:48;;;;;;;;;;;;;;;22.41;100.00;97656.66;5123614;28;20585;-78
2023/09/12 07:41:15;;;;;;;;;;;;;;;22.37;100.00;97655.78;5101167;28;19959;-77
2023/09/12 07:43:42;;;;;;;;;;;;;;;22.23;100.00;97654.56;5100994;28;19924;-77
2023/09/12 07:46:08;;;;;;;;;;;;;;;22.20;100.00;97650.59;5101627;28;20015;-77
2023/09/12 07:48:35;;;;;;;;;;;;;;;22.17;100.00;97659.47;5092436;28;19924;-77
2023/09/12 07:51:01;;;;;;;;;;;;;;;22.38;100.00;97656.56;5120785;28;19927;-77
2023/09/12 07:53:28;;;;;;;;;;;;;;;22.49;100.00;97657.66;5123203;28;19927;-78
2023/09/12 07:55:55;;;;;;;;;;;;;;;22.38;100.00;97657.34;5121875;28;20256;-78
2023/09/12 07:58:22;;;;;;;;;;;;;;;22.30;100.00;97657.50;5118878;28;20452;-78
2023/09/12 08:00:49;;;;;;;;;;;;;;;22.17;100.00;97653.22;5101076;28;19924;-78
2023/09/12 08:03:15;;;;;;;;;;;;;;;22.18;100.00;97658.34;5104783;28;19962;-78
2023/09/12 08:05:41;;;;;;;;;;;;;;;22.31;100.00;97653.66;5104463;28;19958;-79
2023/09/12 08:08:08;;;;;;;;;;;;;;;22.39;100.00;97664.38;5119848;28;19923;-78
2023/09/12 08:10:34;;;;;;;;;;;;;;;22.48;100.00;97661.50;5100987;28;19963;-78
2023/09/12 08:13:01;;;;;;;;;;;;;;;22.67;100.00;97664.41;5102199;28;19974;-78
2023/09/12 08:15:28;;;;;;;;;;;;;;;22.92;100.00;97659.63;5099988;28;20027;-78
2023/09/12 08:17:55;;;;;;;;;;;;;;;23.03;100.00;97655.25;5111692;28;19966;-78
2023/09/12 08:20:21;;;;;;;;;;;;;;;23.29;100.00;97660.19;5122309;28;19924;-78
2023/09/12 08:22:48;;;;;;;;;;;;;;;23.05;100.00;97651.06;5104527;28;19923;-79
2023/09/12 08:25:15;;;;;;;;;;;;;;;23.09;100.00;97653.84;5118062;28;19920;-79
2023/09/12 08:27:43;;;;;;;;;;;;;;;23.02;100.00;97649.03;5118822;28;19924;-79
2023/09/12 08:30:10;;;;;;;;;;;;;;;23.07;100.00;97648.75;5103579;28;19928;-78
2023/09/12 08:32:39;;;;;;;;;;;;;;;23.05;100.00;97655.72;5104285;28;19919;-78
2023/09/12 08:35:06;;;;;;;;;;;;;;;23.03;100.00;97660.69;5101718;28;19951;-77
2023/09/12 08:37:32;;;;;;;;;;;;;;;23.15;100.00;97657.88;5118825;28;19924;-77
2023/09/12 08:39:59;;;;;;;;;;;;;;;23.59;100.00;97666.78;5102080;28;19974;-77
2023/09/12 08:42:27;;;;;;;;;;;;;;;23.52;100.00;97667.41;5122178;28;19927;-77
2023/09/12 08:44:53;;;;;;;;;;;;;;;23.55;100.00;97658.53;5121521;28;19930;-77
2023/09/12 08:47:22;;;;;;;;;;;;;;;23.80;100.00;97650.16;5110501;28;19925;-78
2023/09/12 08:49:49;;;;;;;;;;;;;;;23.95;100.00;97654.78;5118418;28;19970;-78
2023/09/12 08:52:16;;;;;;;;;;;;;;;24.07;100.00;97668.31;5104059;28;19924;-77
2023/09/12 08:54:42;;;;;;;;;;;;;;;24.04;100.00;97663.56;5122314;28;19928;-77
2023/09/12 08:57:11;;;;;;;;;;;;;;;24.05;100.00;97665.13;5101159;28;19935;-77
2023/09/12 08:59:38;;;;;;;;;;;;;;;23.99;100.00;97664.63;5118557;28;19931;-78
2023/09/12 09:02:06;;;;;;;;;;;;;;;23.95;100.00;97671.16;5102797;28;19924;-77
2023/09/12 09:04:34;;;;;;;;;;;;;;;23.98;100.00;97663.06;5122005;28;19934;-77
2023/09/12 09:07:04;;;;;;;;;;;;;;;24.02;100.00;97666.63;5102161;28;19935;-77
2023/09/12 09:09:31;;;;;;;;;;;;;;;24.12;100.00;97659.84;5100370;28;19958;-77
2023/09/12 09:11:57;;;;;;;;;;;;;;;24.22;100.00;97656.56;5119720;28;19984;-78
2023/09/12 09:14:23;;;;;;;;;;;;;;;24.28;100.00;97655.13;5122640;28;19924;-77
2023/09/12 09:16:52;;;;;;;;;;;;;;;24.11;100.00;97661.00;5095382;28;19956;-77
2023/09/12 09:19:21;;;;;;;;;;;;;;;24.16;100.00;97658.81;5117908;28;19935;-77
2023/09/12 09:21:50;;;;;;;;;;;;;;;24.17;100.00;97663.09;5099799;28;19924;-77
2023/09/12 09:24:18;;;;;;;;;;;;;;;24.32;100.00;97657.94;5099940;28;19959;-78
2023/09/12 09:26:45;;;;;;;;;;;;;;;24.45;100.00;97657.44;5121012;28;19963;-78
2023/09/12 09:29:13;;;;;;;;;;;;;;;24.64;100.00;97649.25;5107483;28;19931;-78
2023/09/12 09:31:41;;;;;;;;;;;;;;;24.80;100.00;97653.81;5125591;28;19923;-78
2023/09/12 09:34:11;;;;;;;;;;;;;;;24.89;100.00;97659.88;5122959;28;19919;-79
2023/09/12 09:36:37;;;;;;;;;;;;;;;25.07;100.00;97655.50;5122096;28;20526;-78
2023/09/12 09:39:05;;;;;;;;;;;;;;;24.97;100.00;97650.66;5105647;28;19931;-78
2023/09/12 09:41:51;;;;;;;;;;;;;;;25.13;100.00;97648.59;5125684;28;19930;-79
2023/09/12 09:44:17;;;;;;;;;;;;;;;25.15;100.00;97657.22;5122094;28;19924;-78
2023/09/12 09:46:44;;;;;;;;;;;;;;;25.29;100.00;97652.00;5096305;28;19992;-78
2023/09/12 09:49:11;;;;;;;;;;;;;;;25.35;100.00;97653.28;5103544;28;19928;-78
2023/09/12 09:51:41;;;;;;;;;;;;;;;25.43;100.00;97635.84;5122127;28;19931;-78
2023/09/12 09:54:08;;;;;;;;;;;;;;;25.45;100.00;97640.94;5125262;28;19974;-78
2023/09/12 09:56:47;;;;;;;;;;;;;;;25.74;100.00;97640.25;5125229;28;19955;-79
2023/09/12 09:59:17;;;;;;;;;;;;;;;25.82;100.00;97633.72;5107335;28;19979;-78
2023/09/12 10:01:45;;;;;;;;;;;;;;;25.87;100.00;97632.63;5125490;28;19987;-78
2023/09/12 10:04:12;;;;;;;;;;;;;;;25.78;100.00;97635.59;5122453;28;19924;-78
2023/09/12 10:06:43;;;;;;;;;;;;;;;25.86;100.00;97626.38;5138482;27;19952;-78
2023/09/12 10:09:10;;;;;;;;;;;;;;;25.98;100.00;97630.81;5125165;28;19924;-79
2023/09/12 10:11:39;;;;;;;;;;;;;;;26.01;100.00;97628.13;5126171;28;19923;-78
2023/09/12 10:14:10;;;;;;;;;;;;;;;26.04;100.00;97627.41;5105815;28;19930;-78
2023/09/12 10:16:51;;;;;;;;;;;;;;;26.22;100.00;97616.69;5115469;28;19995;-78
2023/09/12 10:19:18;;;;;;;;;;;;;;;26.36;100.00;97610.63;5122722;28;19959;-78
2023/09/12 10:21:47;;;;;;;;;;;;;;;26.29;100.00;97611.31;5122455;28;20398;-78
2023/09/12 10:24:15;;;;;;;;;;;;;;;26.30;100.00;97610.16;5114119;28;19926;-78
2023/09/12 10:26:45;;;;;;;;;;;;;;;26.30;100.00;97610.94;5114954;28;19927;-78
2023/09/12 10:29:11;;;;;;;;;;;;;;;26.25;100.00;97603.06;5114562;28;20447;-78
2023/09/12 10:31:38;;;;;;;;;;;;;;;26.36;100.00;97607.88;5124137;28;19920;-78
2023/09/12 10:34:06;;;;;;;;;;;;;;;26.52;100.00;97601.00;5108482;28;19935;-77
2023/09/12 10:36:33;;;;;;;;;;;;;;;26.65;100.00;97605.06;5127009;28;20307;-78
2023/09/12 10:39:05;;;;;;;;;;;;;;;26.82;100.00;97592.75;5124587;28;19924;-79
2023/09/12 10:41:31;;;;;;;;;;;;;;;26.89;100.00;97592.84;5104317;28;19955;-78
2023/09/12 10:44:00;;;;;;;;;;;;;;;27.45;100.00;97592.53;5123880;28;19984;-79
2023/09/12 10:46:26;;;;;;;;;;;;;;;27.49;100.00;97595.31;5103801;28;19935;-78
2023/09/12 10:48:54;;;;;;;;;;;;;;;27.34;100.00;97602.63;5122038;28;19920;-80
2023/09/12 10:51:20;;;;;;;;;;;;;;;27.51;100.00;97595.72;5104660;28;19944;-79
2023/09/12 10:54:10;;;;;;;;;;;;;;;27.33;100.00;97590.06;5123594;28;19992;-77
2023/09/12 10:56:37;;;;;;;;;;;;;;;27.33;100.00;97585.38;5123953;28;19945;-77
2023/09/12 10:59:12;;;;;;;;;;;;;;;27.46;100.00;97588.63;5104850;28;19931;-79
2023/09/12 11:01:39;;;;;;;;;;;;;;;27.60;100.00;97583.25;5120776;28;19967;-78
2023/09/12 11:07:01;;;;;;;;;;;;;;;28.12;100.00;97581.22;5104146;28;19930;-78
2023/09/12 11:09:28;;;;;;;;;;;;;;;27.96;100.00;97589.72;5102144;28;19963;-79
2023/09/12 11:12:03;;;;;;;;;;;;;;;27.83;100.00;97588.47;5102799;28;19924;-78
2023/09/12 11:14:32;;;;;;;;;;;;;;;27.86;100.00;97583.00;5106077;28;19932;-78
2023/09/12 11:17:19;;;;;;;;;;;;;;;27.76;100.00;97585.72;5096281;28;19924;-79
2023/09/12 11:19:51;;;;;;;;;;;;;;;27.76;100.00;97580.22;5115463;28;20585;-78
2023/09/12 11:22:27;;;;;;;;;;;;;;;27.77;100.00;97579.81;5120672;28;19925;-78
2023/09/12 11:24:55;;;;;;;;;;;;;;;27.81;100.00;97580.63;5122803;28;19924;-78
2023/09/12 11:30:06;;;;;;;;;;;;;;;27.95;100.00;97576.38;5110771;28;19919;-78
2023/09/12 11:32:33;;;;;;;;;;;;;;;28.00;100.00;97576.03;5110816;28;19919;-78
2023/09/12 11:35:00;;;;;;;;;;;;;;;27.97;100.00;97563.84;5112297;28;19920;-80
2023/09/12 11:37:28;;;;;;;;;;;;;;;28.17;100.00;97565.13;5113723;28;19928;-79
2023/09/12 11:39:57;;;;;;;;;;;;;;;28.31;100.00;97570.69;5108159;28;19999;-79
2023/09/12 11:42:25;;;;;;;;;;;;;;;28.30;100.00;97571.06;5101301;28;19924;-79
2023/09/12 11:44:52;;;;;;;;;;;;;;;28.29;100.00;97564.00;5119877;28;19924;-79
2023/09/12 11:47:20;;;;;;;;;;;;;;;28.26;100.00;97570.25;5093324;28;19958;-79
2023/09/12 11:49:48;;;;;;;;;;;;;;;28.39;100.00;97561.31;5100769;28;19924;-80
2023/09/12 11:52:16;;;;;;;;;;;;;;;28.46;100.00;97562.50;5101373;28;19950;-77
2023/09/12 11:54:43;;;;;;;;;;;;;;;28.54;100.00;97562.13;5100909;28;19924;-78
2023/09/12 11:57:12;;;;;;;;;;;;;;;28.45;100.00;97561.69;5120148;28;19923;-77
2023/09/12 11:59:39;;;;;;;;;;;;;;;28.50;100.00;97564.09;5122643;28;19920;-77
2023/09/12 12:02:07;;;;;;;;;;;;;;;28.50;100.00;97564.09;5102773;28;19924;-78
2023/09/12 12:04:35;;;;;;;;;;;;;;;28.59;100.00;97558.22;5100749;28;19931;-78
2023/09/12 12:07:16;;;;;;;;;;;;;;;28.65;99.94;97554.72;5119409;28;19955;-78
2023/09/12 12:09:44;;;;;;;;;;;;;;;28.76;97.09;97552.78;5100674;28;19928;-79
2023/09/12 12:12:11;;;;;;;;;;;;;;;28.74;98.70;97544.13;5103732;28;19923;-79
2023/09/12 12:14:39;;;;;;;;;;;;;;;28.79;97.80;97548.44;5122298;28;19920;-78
2023/09/12 12:17:09;;;;;;;;;;;;;;;28.77;96.73;97556.31;5111218;28;19924;-78
2023/09/12 12:19:37;;;;;;;;;;;;;;;28.87;96.23;97550.03;5100340;28;19924;-78
2023/09/12 12:22:05;;;;;;;;;;;;;;;28.84;93.85;97546.09;5120523;28;19924;-78
2023/09/12 12:24:37;;;;;;;;;;;;;;;28.64;98.09;97541.34;5122127;28;19985;-79
2023/09/12 12:27:04;;;;;;;;;;;;;;;28.84;96.32;97545.34;5101948;28;19973;-78
2023/09/12 12:29:32;;;;;;;;;;;;;;;28.78;95.96;97536.66;5118571;28;19924;-78
2023/09/12 12:32:00;;;;;;;;;;;;;;;28.97;94.44;97537.50;5101802;28;19928;-79
2023/09/12 12:34:27;;;;;;;;;;;;;;;28.97;92.01;97537.50;5103978;28;19945;-79
2023/09/12 12:36:55;;;;;;;;;;;;;;;29.06;90.22;97535.13;5121354;28;19945;-79
2023/09/12 12:39:22;;;;;;;;;;;;;;;29.12;89.92;97526.06;5118603;28;19924;-78
2023/09/12 12:41:48;;;;;;;;;;;;;;;29.23;89.64;97532.38;5100356;28;19963;-79
2023/09/12 12:44:15;;;;;;;;;;;;;;;29.07;88.41;97531.97;5100490;28;19946;-79
2023/09/12 12:46:48;;;;;;;;;;;;;;;29.15;87.03;97521.78;5093817;28;19928;-78
2023/09/12 12:49:15;;;;;;;;;;;;;;;29.12;83.17;97522.56;5110306;28;19924;-78
2023/09/12 12:51:43;;;;;;;;;;;;;;;28.89;88.82;97520.97;5092896;28;19928;-79
2023/09/12 12:54:10;;;;;;;;;;;;;;;29.12;85.97;97517.81;5110588;28;20603;-78
2023/09/12 12:56:37;;;;;;;;;;;;;;;29.13;81.63;97518.59;5110733;28;19966;-78